Time;durP1;ratioP1;P1;durP2;ratioP2;P2;SDS_P1;SDS_P2;PMS_P1;PMS_P2;Temp;Humidity;BMP_temperature;BMP_pressure;BME280_temperature;BME280_humidity;BME280_pressure;Samples;Min_cycle;Max_cycle;Signal;HPM_P1;HPM_P2
2021/07/04 00:01:02;;;;;;;10.43;7.07;;;19.50;99.90;;;;;;5044046;28;20371;-54
2021/07/04 00:03:28;;;;;;;10.10;6.72;;;19.40;99.90;;;;;;5051657;28;20389;-54
2021/07/04 00:05:54;;;;;;;12.10;7.50;;;19.30;99.90;;;;;;5061323;28;20384;-54
2021/07/04 00:08:23;;;;;;;14.45;6.80;;;19.30;99.90;;;;;;5070800;28;20438;-54
2021/07/04 00:10:50;;;;;;;10.60;7.80;;;19.20;99.90;;;;;;5066196;28;20392;-54
2021/07/04 00:13:19;;;;;;;10.23;6.82;;;19.20;99.90;;;;;;5061127;28;20403;-54
2021/07/04 00:15:45;;;;;;;11.48;7.60;;;19.30;99.90;;;;;;5062513;28;20429;-54
2021/07/04 00:18:16;;;;;;;13.47;7.87;;;19.30;99.90;;;;;;5059807;28;20905;-54
2021/07/04 00:20:42;;;;;;;11.57;7.50;;;19.20;99.90;;;;;;5048424;28;20454;-54
2021/07/04 00:23:08;;;;;;;20.10;8.68;;;19.10;99.90;;;;;;5022306;28;20390;-59
2021/07/04 00:25:34;;;;;;;11.57;8.07;;;18.90;99.90;;;;;;5037819;28;20390;-54
2021/07/04 00:28:00;;;;;;;13.60;8.30;;;18.80;99.90;;;;;;5038803;28;20384;-54
2021/07/04 00:30:26;;;;;;;12.77;7.72;;;18.70;99.90;;;;;;5040141;28;20387;-54
2021/07/04 00:32:53;;;;;;;13.88;8.10;;;18.70;99.90;;;;;;5046560;28;20395;-54
2021/07/04 00:35:20;;;;;;;13.03;8.70;;;18.70;99.90;;;;;;5022445;28;20393;-53
2021/07/04 00:37:47;;;;;;;13.45;8.60;;;18.60;99.90;;;;;;5044924;28;20433;-54
2021/07/04 00:40:14;;;;;;;13.95;8.13;;;18.50;99.90;;;;;;5047386;28;20854;-54
2021/07/04 00:42:40;;;;;;;10.93;7.68;;;18.40;99.90;;;;;;5039627;28;20396;-54
2021/07/04 00:45:12;;;;;;;12.68;7.80;;;18.40;99.90;;;;;;5039595;28;20434;-55
2021/07/04 00:47:38;;;;;;;11.83;7.87;;;18.50;99.90;;;;;;5037325;28;20889;-55
2021/07/04 00:50:05;;;;;;;13.68;7.90;;;18.50;99.90;;;;;;5037647;28;20483;-54
2021/07/04 00:52:31;;;;;;;10.88;7.30;;;18.60;99.90;;;;;;5038533;28;20426;-55
2021/07/04 00:54:57;;;;;;;10.18;6.85;;;18.60;99.90;;;;;;5038342;28;20394;-54
2021/07/04 00:57:23;;;;;;;13.50;7.40;;;18.70;99.90;;;;;;5037762;28;20469;-54
2021/07/04 00:59:49;;;;;;;10.75;7.03;;;18.80;99.90;;;;;;5038407;28;20526;-54
2021/07/04 01:02:14;;;;;;;11.98;6.95;;;18.60;99.90;;;;;;5034738;28;20383;-54
2021/07/04 01:04:40;;;;;;;11.37;6.80;;;18.60;99.90;;;;;;5029245;28;20410;-54
2021/07/04 01:07:06;;;;;;;12.47;7.33;;;18.50;99.90;;;;;;5029537;28;20940;-54
2021/07/04 01:09:32;;;;;;;10.90;7.20;;;18.50;99.90;;;;;;5028785;28;20888;-55
2021/07/04 01:11:58;;;;;;;12.25;7.50;;;18.50;99.90;;;;;;5029392;28;20387;-54
2021/07/04 01:14:24;;;;;;;11.70;6.70;;;18.50;99.90;;;;;;5029591;28;20719;-54
2021/07/04 01:16:50;;;;;;;10.85;7.72;;;18.40;99.90;;;;;;5028928;28;20375;-54
2021/07/04 01:19:18;;;;;;;12.00;7.30;;;18.40;99.90;;;;;;5029535;28;20393;-54
2021/07/04 01:21:45;;;;;;;10.70;6.88;;;18.30;99.90;;;;;;5028749;28;20395;-54
2021/07/04 01:24:11;;;;;;;10.53;7.20;;;18.30;99.90;;;;;;5029288;28;20393;-54
2021/07/04 01:26:38;;;;;;;11.68;7.45;;;18.20;99.90;;;;;;5028404;28;20850;-54
2021/07/04 01:29:04;;;;;;;11.77;6.85;;;18.20;99.90;;;;;;5029302;28;20407;-54
2021/07/04 01:31:31;;;;;;;11.95;7.20;;;18.20;99.90;;;;;;5028356;28;20876;-55
2021/07/04 01:33:57;;;;;;;10.80;7.75;;;18.20;99.90;;;;;;5011568;28;20403;-54
2021/07/04 01:36:22;;;;;;;12.60;7.60;;;18.10;99.90;;;;;;5011748;28;20954;-54
2021/07/04 01:38:48;;;;;;;10.18;7.35;;;18.10;99.90;;;;;;5028257;28;20387;-54
2021/07/04 01:41:14;;;;;;;11.90;7.33;;;18.10;99.90;;;;;;5011599;28;20395;-54
2021/07/04 01:43:40;;;;;;;12.85;7.18;;;18.10;99.90;;;;;;5028495;28;20386;-54
2021/07/04 01:46:06;;;;;;;11.10;7.57;;;18.10;99.90;;;;;;5029338;28;20387;-54
2021/07/04 01:48:31;;;;;;;10.20;7.15;;;18.00;99.90;;;;;;5028357;28;20415;-55
2021/07/04 01:50:59;;;;;;;10.05;7.30;;;17.90;99.90;;;;;;5028705;28;20777;-55
2021/07/04 01:53:26;;;;;;;13.98;7.75;;;17.90;99.90;;;;;;5022688;28;20403;-55
2021/07/04 01:55:52;;;;;;;11.63;7.80;;;17.70;99.90;;;;;;5028958;28;20462;-54
2021/07/04 01:58:18;;;;;;;14.27;8.07;;;17.60;99.90;;;;;;5029324;28;20474;-54
2021/07/04 02:00:44;;;;;;;11.52;7.55;;;17.70;99.90;;;;;;5028278;28;20383;-54
2021/07/04 02:03:11;;;;;;;11.25;7.70;;;17.60;99.90;;;;;;5029134;28;20383;-54
2021/07/04 02:05:38;;;;;;;12.77;7.78;;;17.60;99.90;;;;;;5056947;28;20440;-54
2021/07/04 02:08:05;;;;;;;10.30;7.10;;;17.50;99.90;;;;;;5068835;28;20380;-54
2021/07/04 02:10:35;;;;;;;13.37;7.17;;;17.40;99.90;;;;;;5068168;28;20375;-55
2021/07/04 02:13:01;;;;;;;12.13;7.30;;;17.40;99.90;;;;;;5066055;28;20776;-54
2021/07/04 02:15:30;;;;;;;12.23;8.15;;;17.50;99.90;;;;;;5060581;28;20444;-54
2021/07/04 02:17:56;;;;;;;11.33;7.80;;;17.60;99.90;;;;;;5068668;28;20380;-54
2021/07/04 02:20:53;;;;;;;13.00;7.50;;;17.60;99.90;;;;;;5068543;28;20873;-54
2021/07/04 02:23:22;;;;;;;12.85;8.05;;;17.60;99.90;;;;;;5068136;28;20415;-54
2021/07/04 02:25:49;;;;;;;14.27;8.13;;;17.50;99.90;;;;;;5067685;28;20387;-54
2021/07/04 02:28:17;;;;;;;14.15;8.13;;;17.50;99.90;;;;;;5068944;28;20415;-54
2021/07/04 02:30:44;;;;;;;12.95;8.60;;;17.50;99.90;;;;;;5068480;28;20395;-54
2021/07/04 02:33:11;;;;;;;14.30;8.27;;;17.40;99.90;;;;;;5068578;28;20391;-54
2021/07/04 02:35:43;;;;;;;13.88;8.30;;;17.20;99.90;;;;;;5068126;28;20388;-54
2021/07/04 02:38:09;;;;;;;13.60;7.53;;;17.10;99.90;;;;;;5068676;28;20399;-54
2021/07/04 02:40:36;;;;;;;15.17;8.00;;;17.00;99.90;;;;;;5068056;28;20380;-54
2021/07/04 02:43:02;;;;;;;10.75;7.57;;;17.00;99.90;;;;;;5069409;28;20372;-54
2021/07/04 02:45:29;;;;;;;15.88;8.32;;;17.00;99.90;;;;;;5072148;28;20407;-54
2021/07/04 02:47:55;;;;;;;14.50;8.40;;;17.00;99.90;;;;;;5053602;28;20388;-55
2021/07/04 02:50:21;;;;;;;14.15;8.75;;;17.00;99.90;;;;;;5053672;28;20407;-56
2021/07/04 02:52:54;;;;;;;13.73;8.10;;;17.00;99.90;;;;;;5071243;28;20407;-54
2021/07/04 02:55:21;;;;;;;14.60;8.13;;;17.00;99.90;;;;;;5072066;28;20486;-54
2021/07/04 02:57:47;;;;;;;13.95;8.18;;;16.90;99.90;;;;;;5071577;28;20429;-56
2021/07/04 03:00:15;;;;;;;16.48;8.02;;;17.00;99.90;;;;;;5072482;28;20387;-56
2021/07/04 03:02:41;;;;;;;14.30;8.10;;;17.00;99.90;;;;;;5071106;28;20456;-56
2021/07/04 03:05:10;;;;;;;14.38;8.70;;;17.00;99.90;;;;;;5072156;28;20577;-54
2021/07/04 03:07:38;;;;;;;12.80;8.00;;;17.00;99.90;;;;;;5070941;28;20368;-54
2021/07/04 03:10:06;;;;;;;12.23;7.65;;;17.00;99.90;;;;;;5071869;28;20494;-56
2021/07/04 03:12:32;;;;;;;16.00;8.00;;;16.90;99.90;;;;;;5070879;28;20380;-57
2021/07/04 03:14:58;;;;;;;12.63;7.40;;;16.80;99.90;;;;;;5070651;28;21090;-56
2021/07/04 03:17:24;;;;;;;12.70;8.03;;;16.80;99.90;;;;;;5071893;28;20364;-56
2021/07/04 03:19:50;;;;;;;13.10;8.65;;;16.90;99.90;;;;;;5070476;28;20402;-56
2021/07/04 03:22:15;;;;;;;14.02;8.30;;;16.90;99.90;;;;;;5071282;28;20423;-56
2021/07/04 03:24:41;;;;;;;11.53;7.30;;;16.90;99.90;;;;;;5070950;28;20403;-56
2021/07/04 03:27:10;;;;;;;16.25;8.63;;;16.90;99.90;;;;;;5071375;28;20403;-56
2021/07/04 03:29:36;;;;;;;13.48;7.45;;;16.80;99.90;;;;;;5070442;28;20486;-57
2021/07/04 03:32:03;;;;;;;12.95;7.53;;;16.90;99.90;;;;;;5071724;28;20380;-56
2021/07/04 03:34:29;;;;;;;11.00;7.70;;;16.90;99.90;;;;;;5071725;28;20376;-56
2021/07/04 03:36:54;;;;;;;12.50;7.70;;;17.00;99.90;;;;;;5070744;28;21160;-56
2021/07/04 03:39:20;;;;;;;13.33;7.60;;;17.40;99.90;;;;;;5071507;28;20525;-56
2021/07/04 03:41:46;;;;;;;12.60;7.47;;;17.00;99.90;;;;;;5070596;28;20471;-56
2021/07/04 03:44:11;;;;;;;12.37;7.50;;;17.00;99.90;;;;;;5053272;28;20427;-56
2021/07/04 03:46:37;;;;;;;12.05;7.00;;;17.10;99.90;;;;;;5070529;28;20483;-56
2021/07/04 03:49:03;;;;;;;11.75;6.90;;;17.10;99.90;;;;;;5071169;28;20905;-54
2021/07/04 03:51:29;;;;;;;12.00;7.23;;;17.20;99.90;;;;;;5070793;28;20423;-54
2021/07/04 03:53:55;;;;;;;12.13;7.80;;;17.20;99.90;;;;;;5070604;28;20490;-54
2021/07/04 03:56:20;;;;;;;13.50;7.83;;;17.20;99.90;;;;;;5070386;28;20509;-54
2021/07/04 03:58:47;;;;;;;10.30;7.60;;;17.30;99.90;;;;;;5070288;28;20383;-54
2021/07/04 04:01:19;;;;;;;11.50;7.28;;;17.30;99.90;;;;;;5070960;28;20861;-54
2021/07/04 04:03:49;;;;;;;11.32;7.45;;;17.40;99.90;;;;;;5070126;28;20380;-54
2021/07/04 04:06:15;;;;;;;13.18;7.40;;;17.40;99.90;;;;;;5052717;28;20388;-54
2021/07/04 04:08:42;;;;;;;10.85;6.90;;;17.50;99.90;;;;;;5070000;28;20418;-54
2021/07/04 04:11:09;;;;;;;14.10;7.70;;;17.60;99.90;;;;;;5070475;28;20463;-54
2021/07/04 04:13:34;;;;;;;12.98;8.05;;;17.60;99.90;;;;;;5070292;28;20387;-55
2021/07/04 04:16:01;;;;;;;11.47;7.20;;;17.80;99.90;;;;;;5070548;28;20380;-54
2021/07/04 04:18:27;;;;;;;11.55;7.15;;;17.90;99.90;;;;;;5070587;28;20384;-54
2021/07/04 04:20:52;;;;;;;12.60;7.55;;;18.10;99.90;;;;;;5069441;28;20392;-54
2021/07/04 04:23:18;;;;;;;13.57;7.63;;;18.20;99.90;;;;;;5070621;28;20390;-54
2021/07/04 04:25:44;;;;;;;12.70;7.70;;;18.20;99.90;;;;;;5051833;28;20463;-54
2021/07/04 04:28:09;;;;;;;15.32;7.80;;;18.10;99.90;;;;;;5070041;28;20466;-54
2021/07/04 04:30:36;;;;;;;11.10;7.03;;;18.20;99.90;;;;;;5052034;28;20388;-55
2021/07/04 04:33:02;;;;;;;14.18;8.07;;;18.40;99.90;;;;;;5070276;28;20399;-54
2021/07/04 04:35:28;;;;;;;11.45;7.18;;;18.60;99.90;;;;;;5052271;28;20758;-54
2021/07/04 04:37:53;;;;;;;13.20;7.90;;;18.60;99.90;;;;;;5069154;28;20402;-54
2021/07/04 04:40:19;;;;;;;12.27;8.35;;;18.60;99.90;;;;;;5070089;28;20699;-54
2021/07/04 04:42:45;;;;;;;16.45;8.40;;;18.50;99.90;;;;;;5069133;28;20890;-54
2021/07/04 04:45:11;;;;;;;10.13;7.30;;;18.70;99.90;;;;;;5069991;28;20391;-54
2021/07/04 04:47:37;;;;;;;10.15;7.18;;;18.70;99.90;;;;;;5068896;28;20368;-55
2021/07/04 04:50:04;;;;;;;12.15;7.90;;;18.80;99.90;;;;;;5069989;28;20912;-54
2021/07/04 04:52:30;;;;;;;13.02;8.10;;;18.90;99.90;;;;;;5069864;28;20765;-54
2021/07/04 04:54:56;;;;;;;11.20;8.10;;;19.00;99.90;;;;;;5068800;28;20473;-54
2021/07/04 04:57:21;;;;;;;12.47;8.03;;;19.00;99.90;;;;;;5035085;28;20397;-54
2021/07/04 04:59:47;;;;;;;14.48;8.57;;;18.90;99.90;;;;;;5068775;28;20384;-54
2021/07/04 05:02:13;;;;;;;12.82;7.60;;;18.90;99.90;;;;;;5069449;28;20490;-54
2021/07/04 05:04:38;;;;;;;12.17;7.97;;;19.00;99.90;;;;;;5068721;28;20776;-55
2021/07/04 05:07:04;;;;;;;12.33;7.97;;;19.20;99.90;;;;;;5069668;28;20462;-54
2021/07/04 05:09:30;;;;;;;11.07;7.85;;;19.20;99.90;;;;;;5069453;28;20400;-55
2021/07/04 05:11:56;;;;;;;13.30;8.30;;;19.10;99.90;;;;;;5050910;28;20425;-55
2021/07/04 05:14:21;;;;;;;13.03;7.70;;;19.10;99.90;;;;;;5069774;28;20463;-54
2021/07/04 05:16:47;;;;;;;12.77;7.30;;;19.30;99.90;;;;;;5068653;28;20429;-54
2021/07/04 05:19:13;;;;;;;12.52;7.53;;;19.60;99.90;;;;;;5069370;28;20391;-54
2021/07/04 05:21:39;;;;;;;12.37;7.30;;;19.70;99.90;;;;;;5068834;28;20414;-55
2021/07/04 05:24:07;;;;;;;12.48;8.02;;;19.80;99.90;;;;;;5069681;28;20383;-54
2021/07/04 05:26:33;;;;;;;11.32;7.88;;;19.90;99.90;;;;;;5069618;28;20869;-54
2021/07/04 05:28:59;;;;;;;12.30;8.20;;;20.10;99.90;;;;;;5068688;28;20465;-54
2021/07/04 05:31:25;;;;;;;10.23;7.10;;;20.10;99.90;;;;;;5051693;28;20376;-54
2021/07/04 05:33:52;;;;;;;10.80;7.00;;;20.00;99.90;;;;;;5068470;28;20392;-54
2021/07/04 05:36:18;;;;;;;11.02;7.30;;;19.90;99.90;;;;;;5069672;28;20384;-54
2021/07/04 05:38:44;;;;;;;11.40;7.67;;;19.80;99.90;;;;;;5069095;28;20398;-54
2021/07/04 05:41:12;;;;;;;9.57;6.93;;;19.80;99.90;;;;;;5069296;28;20463;-54
2021/07/04 05:43:40;;;;;;;11.00;6.90;;;20.00;99.90;;;;;;5068456;28;20388;-56
2021/07/04 05:46:06;;;;;;;10.53;7.20;;;20.30;99.90;;;;;;5069443;28;20533;-56
2021/07/04 05:48:33;;;;;;;11.60;7.30;;;20.70;99.90;;;;;;5051296;28;20411;-56
2021/07/04 05:50:59;;;;;;;10.63;6.78;;;20.90;99.90;;;;;;5050318;28;20428;-56
2021/07/04 05:53:25;;;;;;;10.80;7.13;;;20.80;99.90;;;;;;5037780;28;20397;-56
2021/07/04 05:55:51;;;;;;;10.68;6.50;;;21.10;99.90;;;;;;5042559;28;20402;-56
2021/07/04 05:58:17;;;;;;;10.13;7.00;;;21.50;99.90;;;;;;5011601;28;20387;-57
2021/07/04 06:00:43;;;;;;;9.95;6.53;;;21.50;99.90;;;;;;5038411;28;20443;-56
2021/07/04 06:03:09;;;;;;;11.32;6.32;;;21.90;99.90;;;;;;5048900;28;20385;-57
2021/07/04 06:05:35;;;;;;;12.87;7.47;;;22.10;99.90;;;;;;5049288;28;20897;-57
2021/07/04 06:08:00;;;;;;;10.50;6.10;;;22.50;99.90;;;;;;5047230;28;20476;-54
2021/07/04 06:10:26;;;;;;;11.00;6.35;;;23.40;99.90;;;;;;5011389;28;20465;-54
2021/07/04 06:12:52;;;;;;;9.00;6.38;;;24.10;99.90;;;;;;5027687;28;20399;-54
2021/07/04 06:15:17;;;;;;;10.50;6.10;;;24.20;99.90;;;;;;5048051;28;20451;-54
2021/07/04 06:17:43;;;;;;;10.27;5.60;;;24.80;99.90;;;;;;5058772;28;20816;-54
2021/07/04 06:20:11;;;;;;;9.90;5.95;;;25.50;99.90;;;;;;5043017;28;20397;-54
2021/07/04 06:22:38;;;;;;;9.38;6.05;;;25.70;99.90;;;;;;5059835;28;20398;-55
2021/07/04 06:25:09;;;;;;;12.38;5.47;;;25.70;99.90;;;;;;5045405;28;20818;-54
2021/07/04 06:27:36;;;;;;;12.25;6.60;;;25.80;99.90;;;;;;5063706;28;20884;-55
2021/07/04 06:30:03;;;;;;;10.50;6.35;;;25.70;99.90;;;;;;5071575;28;20414;-55
2021/07/04 06:32:29;;;;;;;9.70;5.78;;;25.50;99.90;;;;;;5071728;28;20816;-55
2021/07/04 06:34:54;;;;;;;11.70;6.20;;;25.90;99.90;;;;;;5071488;28;20376;-57
2021/07/04 06:37:20;;;;;;;9.33;6.00;;;26.60;99.90;;;;;;5050286;28;20408;-57
2021/07/04 06:39:46;;;;;;;9.03;5.50;;;27.10;99.90;;;;;;5041326;28;20924;-55
2021/07/04 06:42:11;;;;;;;10.00;6.07;;;28.00;99.90;;;;;;5042709;28;20735;-55
2021/07/04 06:44:37;;;;;;;8.70;5.80;;;29.60;99.90;;;;;;5024733;28;21238;-56
2021/07/04 06:47:04;;;;;;;9.48;5.82;;;30.70;99.90;;;;;;5053765;28;20396;-55
2021/07/04 06:49:30;;;;;;;8.90;6.30;;;31.70;97.60;;;;;;5043759;28;20408;-57
2021/07/04 06:51:55;;;;;;;9.20;5.67;;;32.50;94.10;;;;;;5061982;28;20437;-55
2021/07/04 06:54:21;;;;;;;9.80;5.43;;;31.90;94.40;;;;;;5042353;28;20397;-56
2021/07/04 06:56:47;;;;;;;10.33;5.77;;;32.20;92.90;;;;;;5050743;28;20890;-52
2021/07/04 06:59:12;;;;;;;9.02;5.60;;;31.90;92.20;;;;;;5045477;28;20899;-54
2021/07/04 07:01:38;;;;;;;9.70;5.70;;;30.80;92.60;;;;;;5048500;28;20380;-59
2021/07/04 07:04:04;;;;;;;9.90;5.70;;;30.10;94.10;;;;;;5045322;28;20385;-53
2021/07/04 07:06:29;;;;;;;8.13;4.82;;;29.40;96.00;;;;;;5033775;28;20390;-54
2021/07/04 07:08:55;;;;;;;8.65;4.90;;;29.10;96.30;;;;;;5043274;28;21206;-53
2021/07/04 07:11:21;;;;;;;9.07;4.90;;;28.50;96.50;;;;;;5034383;28;20825;-53
2021/07/04 07:13:47;;;;;;;8.37;5.37;;;28.50;97.20;;;;;;5042315;28;20470;-52
2021/07/04 07:16:13;;;;;;;7.90;5.30;;;28.80;97.10;;;;;;5041022;28;20387;-53
2021/07/04 07:18:39;;;;;;;8.15;5.03;;;29.50;96.90;;;;;;5041102;28;20393;-59
2021/07/04 07:21:05;;;;;;;10.93;9.73;;;30.60;95.60;;;;;;5042938;28;20887;-53
2021/07/04 07:23:30;;;;;;;7.38;4.78;;;32.20;91.70;;;;;;5043043;28;20472;-53
2021/07/04 07:25:56;;;;;;;8.97;6.70;;;33.00;89.90;;;;;;5022598;28;21045;-53
2021/07/04 07:28:22;;;;;;;7.80;4.90;;;32.90;88.30;;;;;;5023471;28;20439;-55
2021/07/04 07:30:49;;;;;;;9.05;5.60;;;33.20;87.40;;;;;;5037368;28;20491;-53
2021/07/04 07:33:15;;;;;;;8.60;5.40;;;33.30;83.50;;;;;;5041692;28;20501;-54
2021/07/04 07:35:41;;;;;;;9.80;5.80;;;33.50;82.00;;;;;;5038228;28;20502;-54
2021/07/04 07:38:09;;;;;;;8.13;5.10;;;33.00;82.50;;;;;;5022509;28;20386;-54
2021/07/04 07:40:35;;;;;;;8.35;5.25;;;32.30;85.70;;;;;;5026372;28;20447;-53
2021/07/04 07:43:02;;;;;;;8.37;5.67;;;32.50;83.80;;;;;;5023095;28;20393;-53
2021/07/04 07:45:28;;;;;;;8.70;5.22;;;31.90;84.40;;;;;;5044640;28;20406;-53
2021/07/04 07:47:53;;;;;;;8.10;5.40;;;30.80;87.90;;;;;;5049989;28;20378;-55
2021/07/04 07:50:19;;;;;;;11.48;8.90;;;29.40;91.30;;;;;;5050525;28;20421;-54
2021/07/04 07:52:45;;;;;;;9.75;6.25;;;28.30;93.30;;;;;;5049486;28;20433;-54
2021/07/04 07:55:12;;;;;;;8.48;6.10;;;28.00;95.00;;;;;;5033177;28;20593;-54
2021/07/04 07:57:38;;;;;;;10.35;7.32;;;27.60;96.70;;;;;;5051660;28;20395;-60
2021/07/04 08:00:07;;;;;;;10.10;5.93;;;27.60;97.90;;;;;;5061500;28;20398;-54
2021/07/04 08:02:33;;;;;;;9.60;7.00;;;28.50;97.90;;;;;;5056024;28;20509;-55
2021/07/04 08:04:59;;;;;;;9.38;5.88;;;30.00;95.20;;;;;;5052368;28;20385;-55
2021/07/04 08:07:25;;;;;;;10.05;5.93;;;30.60;93.10;;;;;;5055047;28;20389;-56
2021/07/04 08:09:51;;;;;;;9.53;5.60;;;31.30;91.90;;;;;;5049262;28;20478;-56
2021/07/04 08:12:16;;;;;;;11.33;5.40;;;31.90;91.30;;;;;;5050379;28;20847;-56
2021/07/04 08:14:42;;;;;;;8.73;5.60;;;32.80;88.20;;;;;;5049574;28;20445;-56
2021/07/04 08:17:09;;;;;;;9.10;5.50;;;34.60;86.90;;;;;;5049653;28;20747;-56
2021/07/04 08:19:35;;;;;;;8.85;5.82;;;33.50;81.70;;;;;;5031676;28;20393;-56
2021/07/04 08:22:01;;;;;;;9.10;5.75;;;33.10;83.20;;;;;;5050176;28;20389;-56
2021/07/04 08:24:27;;;;;;;9.60;5.72;;;32.80;82.20;;;;;;5049410;28;20393;-56
2021/07/04 08:26:54;;;;;;;8.60;5.40;;;32.60;83.10;;;;;;5030739;28;20393;-56
2021/07/04 08:29:20;;;;;;;8.30;5.50;;;32.90;84.20;;;;;;5049329;28;20878;-57
2021/07/04 08:31:46;;;;;;;9.18;6.00;;;33.70;79.70;;;;;;5030492;28;20763;-57
2021/07/04 08:34:12;;;;;;;9.40;5.83;;;33.50;77.80;;;;;;5048673;28;20435;-58
2021/07/04 08:36:37;;;;;;;9.80;6.67;;;34.40;75.30;;;;;;5029433;28;20409;-57
2021/07/04 08:39:05;;;;;;;9.33;6.57;;;35.30;70.90;;;;;;5030431;28;20381;-58
2021/07/04 08:41:31;;;;;;;9.65;6.50;;;35.70;69.20;;;;;;5024705;28;20476;-58
2021/07/04 08:43:57;;;;;;;9.15;8.25;;;35.60;67.70;;;;;;5046197;28;20477;-57
2021/07/04 08:46:22;;;;;;;11.00;9.90;;;36.80;64.60;;;;;;5048277;28;20381;-58
2021/07/04 08:48:48;;;;;;;10.03;7.97;;;35.40;63.60;;;;;;5046244;28;20895;-58
2021/07/04 08:51:14;;;;;;;10.40;6.60;;;33.90;65.70;;;;;;5047498;28;20480;-58
2021/07/04 08:53:40;;;;;;;9.70;8.10;;;32.50;70.70;;;;;;5047422;28;20720;-57
2021/07/04 08:56:06;;;;;;;9.53;7.73;;;32.20;71.00;;;;;;5042825;28;20387;-57
2021/07/04 08:58:32;;;;;;;8.65;5.80;;;31.70;71.70;;;;;;5012392;28;20805;-57
2021/07/04 09:01:11;;;;;;;9.23;6.60;;;30.60;76.00;;;;;;5043376;28;20472;-58
2021/07/04 09:03:38;;;;;;;8.23;5.10;;;29.90;80.10;;;;;;5048756;28;20381;-58
2021/07/04 09:06:03;;;;;;;9.70;5.80;;;29.10;84.50;;;;;;5045347;28;20482;-58
2021/07/04 09:08:29;;;;;;;8.37;5.37;;;30.10;82.40;;;;;;5049113;28;20527;-58
2021/07/04 09:11:15;;;;;;;9.73;5.90;;;31.30;78.30;;;;;;5045359;28;20451;-58
2021/07/04 09:13:44;;;;;;;8.95;5.50;;;31.10;80.00;;;;;;5044118;28;20388;-57
2021/07/04 09:16:19;;;;;;;10.00;5.75;;;30.90;83.00;;;;;;5045525;28;20477;-57
2021/07/04 09:18:45;;;;;;;9.18;5.50;;;30.20;82.00;;;;;;5044261;28;20389;-57
2021/07/04 09:21:19;;;;;;;8.00;5.43;;;29.70;82.10;;;;;;5043847;28;20470;-59
2021/07/04 09:23:45;;;;;;;8.40;5.50;;;29.10;86.10;;;;;;5045026;28;20393;-58
2021/07/04 09:26:42;;;;;;;9.77;6.33;;;28.90;87.20;;;;;;5044092;28;20380;-59
2021/07/04 09:29:10;;;;;;;10.27;6.80;;;28.90;88.90;;;;;;5040232;28;20540;-59
2021/07/04 09:31:38;;;;;;;9.05;5.97;;;28.80;89.50;;;;;;5048140;28;20459;-59
2021/07/04 09:34:06;;;;;;;9.17;6.30;;;28.50;91.20;;;;;;5031225;28;20669;-59
2021/07/04 09:36:33;;;;;;;9.32;5.72;;;27.90;91.30;;;;;;5032160;28;20492;-59
2021/07/04 09:38:58;;;;;;;10.20;5.93;;;27.30;92.70;;;;;;5036831;28;20492;-59
2021/07/04 09:41:24;;;;;;;10.13;6.10;;;26.90;93.40;;;;;;5042256;28;20906;-59
2021/07/04 09:43:51;;;;;;;8.27;5.60;;;27.10;94.60;;;;;;5042378;28;20389;-59
2021/07/04 09:46:17;;;;;;;9.90;5.72;;;26.80;96.40;;;;;;5046438;28;20414;-58
2021/07/04 09:48:46;;;;;;;9.80;5.38;;;26.50;96.70;;;;;;5039825;28;20497;-57
2021/07/04 09:51:20;;;;;;;7.82;4.72;;;26.20;96.40;;;;;;5024951;28;20413;-59
2021/07/04 09:53:51;;;;;;;8.60;5.00;;;25.90;97.00;;;;;;5048705;28;20416;-58
2021/07/04 09:56:28;;;;;;;8.00;4.90;;;25.60;97.20;;;;;;5052755;28;20777;-57
2021/07/04 09:58:57;;;;;;;7.22;4.35;;;25.50;99.90;;;;;;5051221;28;20401;-57
2021/07/04 10:01:43;;;;;;;8.50;4.32;;;25.60;99.90;;;;;;5052098;28;20373;-58
2021/07/04 10:04:28;;;;;;;6.70;3.50;;;25.70;99.90;;;;;;5050215;28;21003;-58
2021/07/04 10:06:54;;;;;;;7.00;4.10;;;26.70;96.30;;;;;;5051251;28;20473;-58
2021/07/04 10:09:25;;;;;;;7.07;3.63;;;26.90;95.90;;;;;;5035384;28;20496;-58
2021/07/04 10:11:50;;;;;;;6.60;3.70;;;27.10;94.40;;;;;;5062868;28;20389;-56
2021/07/04 10:14:16;;;;;;;7.00;3.92;;;27.50;94.20;;;;;;5065723;28;20402;-58
2021/07/04 10:16:43;;;;;;;7.68;3.55;;;28.10;93.20;;;;;;5046999;28;20383;-58
2021/07/04 10:19:23;;;;;;;7.32;4.38;;;27.90;92.50;;;;;;5045745;28;20401;-59
2021/07/04 10:21:53;;;;;;;6.88;3.90;;;27.50;93.90;;;;;;5047626;28;20396;-57
2021/07/04 10:24:20;;;;;;;6.65;3.90;;;27.40;92.90;;;;;;5054085;28;20377;-58
2021/07/04 10:26:46;;;;;;;9.40;4.30;;;27.10;94.50;;;;;;5044279;28;20477;-58
2021/07/04 10:29:12;;;;;;;7.47;4.40;;;27.40;93.20;;;;;;5042302;28;20833;-57
2021/07/04 10:31:38;;;;;;;6.90;4.05;;;27.70;92.50;;;;;;5064430;28;20376;-58
2021/07/04 10:34:27;;;;;;;7.60;4.40;;;28.00;92.40;;;;;;5071486;28;20738;-58
2021/07/04 10:36:59;;;;;;;7.22;4.57;;;27.90;93.80;;;;;;5071683;28;20578;-57
2021/07/04 10:39:27;;;;;;;7.72;4.30;;;27.30;94.10;;;;;;5019237;28;20405;-59
2021/07/04 10:41:54;;;;;;;7.85;4.30;;;27.20;96.30;;;;;;5041904;28;20385;-57
2021/07/04 10:44:44;;;;;;;7.97;4.30;;;27.30;95.20;;;;;;5041245;28;20474;-59
2021/07/04 10:47:16;;;;;;;6.68;3.90;;;27.50;95.60;;;;;;5025177;28;20537;-58
2021/07/04 10:50:06;;;;;;;7.80;4.65;;;27.40;94.20;;;;;;5054335;28;21903;-58
2021/07/04 10:52:38;;;;;;;7.40;4.50;;;27.30;95.40;;;;;;5049941;28;20496;-58
2021/07/04 10:55:27;;;;;;;8.10;4.88;;;27.30;96.90;;;;;;5042363;28;20397;-59
2021/07/04 10:57:57;;;;;;;7.57;5.00;;;27.10;95.90;;;;;;5045001;28;20461;-59
2021/07/04 11:00:26;;;;;;;7.50;4.90;;;27.20;96.20;;;;;;5051010;28;20409;-58
2021/07/04 11:02:58;;;;;;;8.88;4.70;;;27.30;96.70;;;;;;5047429;28;20505;-57
2021/07/04 11:05:37;;;;;;;8.10;4.80;;;27.20;96.40;;;;;;5042125;28;20946;-59
2021/07/04 11:08:21;;;;;;;7.35;4.32;;;27.30;96.00;;;;;;5040749;28;20477;-60
2021/07/04 11:10:53;;;;;;;7.72;4.32;;;27.20;95.60;;;;;;5042510;28;20410;-60
2021/07/04 11:13:18;;;;;;;8.50;4.80;;;26.70;96.00;;;;;;5038816;28;20397;-58
2021/07/04 11:15:50;;;;;;;7.28;4.32;;;26.10;96.40;;;;;;5022042;28;20688;-56
2021/07/04 11:18:16;;;;;;;7.57;4.30;;;26.10;98.20;;;;;;5047599;28;20396;-58
2021/07/04 11:20:44;;;;;;;8.25;4.30;;;25.90;98.80;;;;;;5048609;28;20412;-59
2021/07/04 11:23:16;;;;;;;8.05;4.63;;;25.90;98.40;;;;;;5045088;28;20406;-58
2021/07/04 11:25:51;;;;;;;9.07;5.37;;;25.90;99.90;;;;;;5032312;28;20395;-57
2021/07/04 11:28:17;;;;;;;11.30;6.70;;;25.80;99.90;;;;;;5043906;28;20396;-57
2021/07/04 11:30:43;;;;;;;10.48;5.88;;;25.10;99.90;;;;;;5047527;28;20805;-57
2021/07/04 11:35:54;;;;;;;9.52;6.20;;;24.40;99.90;;;;;;5061008;28;20761;-56
2021/07/04 11:38:23;;;;;;;9.52;5.40;;;24.30;99.90;;;;;;5053862;28;20399;-56
2021/07/04 11:40:49;;;;;;;8.87;5.37;;;24.50;99.90;;;;;;5058900;28;20385;-57
2021/07/04 11:43:20;;;;;;;9.15;5.90;;;24.60;99.90;;;;;;5057059;28;20408;-57
2021/07/04 11:45:59;;;;;;;10.63;5.85;;;25.00;99.90;;;;;;5047400;28;20443;-58
2021/07/04 11:48:45;;;;;;;11.07;5.80;;;25.30;99.90;;;;;;5053253;28;20481;-57
2021/07/04 11:51:20;;;;;;;9.82;6.00;;;25.40;99.90;;;;;;5033306;28;20774;-58
2021/07/04 11:53:51;;;;;;;9.80;6.40;;;25.40;99.90;;;;;;5044344;28;20393;-57
2021/07/04 11:56:17;;;;;;;8.70;6.18;;;25.80;99.90;;;;;;5050981;28;20483;-54
2021/07/04 11:58:43;;;;;;;10.45;6.70;;;25.70;99.90;;;;;;5049140;28;20825;-55
2021/07/04 12:01:42;;;;;;;10.80;6.75;;;25.80;99.90;;;;;;5050193;28;20384;-55
2021/07/04 12:04:08;;;;;;;12.95;6.90;;;25.60;99.90;;;;;;5070062;28;20392;-54
2021/07/04 12:06:33;;;;;;;10.53;6.60;;;25.50;99.90;;;;;;5028826;28;20980;-56
2021/07/04 12:09:02;;;;;;;9.50;6.70;;;25.00;99.90;;;;;;5051238;28;20499;-58
2021/07/04 12:11:50;;;;;;;11.97;6.73;;;24.80;99.90;;;;;;5052087;28;20400;-55
2021/07/04 12:14:26;;;;;;;11.35;6.85;;;23.90;99.90;;;;;;5058015;28;20489;-54
2021/07/04 12:17:17;;;;;;;11.30;6.63;;;23.50;99.90;;;;;;5057041;28;20403;-54
2021/07/04 12:19:44;;;;;;;9.85;6.85;;;23.60;99.90;;;;;;5042892;28;20411;-56
2021/07/04 12:22:12;;;;;;;10.67;7.00;;;23.50;99.90;;;;;;5051326;28;20750;-55
2021/07/04 12:24:47;;;;;;;10.00;7.10;;;23.30;99.90;;;;;;5068639;28;20380;-55
2021/07/04 12:27:13;;;;;;;11.33;7.17;;;24.10;99.90;;;;;;5046222;28;20455;-55
2021/07/04 12:30:13;;;;;;;10.52;6.65;;;24.30;99.90;;;;;;5049884;28;20436;-55
2021/07/04 12:32:47;;;;;;;10.33;6.50;;;24.30;99.90;;;;;;5050447;28;20381;-54
2021/07/04 12:35:40;;;;;;;9.85;6.85;;;24.80;99.90;;;;;;5049388;28;20713;-53
2021/07/04 12:38:11;;;;;;;11.50;6.30;;;25.00;99.90;;;;;;5049131;28;20443;-55
2021/07/04 12:40:53;;;;;;;11.00;7.20;;;24.80;99.90;;;;;;5054550;28;20465;-57
2021/07/04 12:43:22;;;;;;;10.25;6.70;;;24.50;99.90;;;;;;5050082;28;20515;-55
2021/07/04 12:45:50;;;;;;;9.60;6.72;;;24.20;99.90;;;;;;5043353;28;20391;-55
2021/07/04 12:48:18;;;;;;;10.95;6.70;;;24.10;99.90;;;;;;5048593;28;20386;-55